Time;durP1;ratioP1;P1;durP2;ratioP2;P2;SDS_P1;SDS_P2;PMS_P1;PMS_P2;Temp;Humidity;BMP_temperature;BMP_pressure;BME280_temperature;BME280_humidity;BME280_pressure;Samples;Min_cycle;Max_cycle;Signal;HPM_P1;HPM_P2
2021/08/02 00:00:28;;;;;;;22.23;19.35;;;;;;;19.06;83.99;99462.34;5111283;28;20085;-78
2021/08/02 00:03:07;;;;;;;23.65;20.17;;;;;;;19.15;83.92;99458.38;5111647;28;20031;-76
2021/08/02 00:05:35;;;;;;;31.40;24.63;;;;;;;19.13;83.78;99441.78;5093496;28;20069;-76
2021/08/02 00:08:02;;;;;;;49.85;32.50;;;;;;;18.87;84.00;99404.34;5112410;28;20039;-78
2021/08/02 00:10:34;;;;;;;52.10;34.70;;;;;;;18.95;84.31;99436.50;5092580;28;20860;-78
2021/08/02 00:13:15;;;;;;;54.65;36.78;;;;;;;18.86;84.86;99410.56;5111716;28;20066;-77
2021/08/02 00:15:41;;;;;;;35.60;27.50;;;;;;;18.80;84.88;99389.78;5110194;28;20127;-78
2021/08/02 00:18:08;;;;;;;38.40;27.35;;;;;;;18.80;85.01;99409.06;5110090;28;20274;-77
2021/08/02 00:20:35;;;;;;;31.77;23.83;;;;;;;18.64;84.97;99393.19;5074516;28;20036;-78
2021/08/02 00:23:08;;;;;;;34.65;25.73;;;;;;;18.58;85.29;99396.13;5074626;28;20045;-77
2021/08/02 00:25:35;;;;;;;36.38;26.30;;;;;;;18.55;85.57;99385.72;5109607;28;20443;-77
2021/08/02 00:28:03;;;;;;;40.75;28.05;;;;;;;18.56;85.77;99391.81;5124331;27;20066;-78
2021/08/02 00:30:30;;;;;;;38.83;27.33;;;;;;;18.56;85.83;99395.31;5095771;27;20035;-76
2021/08/02 00:32:56;;;;;;;38.25;26.95;;;;;;;18.39;85.96;99374.22;5130841;27;20050;-78
2021/08/02 00:35:22;;;;;;;34.08;24.50;;;;;;;18.61;85.96;99409.13;5129826;28;20043;-78
2021/08/02 00:38:04;;;;;;;35.97;27.73;;;;;;;18.64;86.36;99395.81;5094587;28;20039;-79
2021/08/02 00:40:48;;;;;;;30.90;23.73;;;;;;;18.67;86.10;99387.75;5086343;28;20074;-78
2021/08/02 00:44:11;;;;;;;36.17;27.20;;;;;;;18.64;86.44;99387.03;5087852;28;20038;-78
2021/08/02 00:46:46;;;;;;;40.53;27.98;;;;;;;18.58;86.26;99380.31;5001776;28;20070;-76
2021/08/02 00:49:15;;;;;;;45.65;31.45;;;;;;;18.64;86.70;99385.28;5054037;28;20039;-76
2021/08/02 00:51:51;;;;;;;38.08;27.30;;;;;;;18.57;86.62;99365.41;5070531;28;20039;-78
2021/08/02 00:54:21;;;;;;;38.42;28.17;;;;;;;18.60;86.70;99367.91;5090395;28;20067;-78
2021/08/02 00:56:50;;;;;;;41.17;29.88;;;;;;;18.49;86.61;99355.25;5090432;28;20085;-75
2021/08/02 00:59:16;;;;;;;43.78;29.92;;;;;;;18.54;87.02;99352.41;5091058;28;20089;-77
2021/08/02 01:01:44;;;;;;;45.92;31.83;;;;;;;18.51;87.01;99342.00;5090787;28;20053;-76
2021/08/02 01:04:11;;;;;;;49.70;32.63;;;;;;;18.75;87.30;99375.97;5074460;28;20041;-78
2021/08/02 01:06:38;;;;;;;39.53;28.00;;;;;;;18.72;86.58;99368.22;5090551;28;20042;-76
2021/08/02 01:09:12;;;;;;;44.10;29.60;;;;;;;18.74;87.08;99367.22;5110381;28;20134;-77
2021/08/02 01:11:39;;;;;;;46.83;31.33;;;;;;;18.72;86.89;99363.81;5091338;28;20039;-77
2021/08/02 01:14:08;;;;;;;44.22;30.13;;;;;;;18.70;86.93;99359.53;5108298;28;20036;-76
2021/08/02 01:16:35;;;;;;;49.83;32.70;;;;;;;18.67;86.97;99369.28;5108596;28;20063;-75
2021/08/02 01:19:08;;;;;;;44.75;31.55;;;;;;;18.68;87.14;99357.00;5090733;28;20082;-76
2021/08/02 01:21:39;;;;;;;41.63;30.13;;;;;;;18.62;87.12;99363.41;5091167;28;20053;-77
2021/08/02 01:24:10;;;;;;;55.53;34.20;;;;;;;18.61;87.15;99345.91;5112893;28;20042;-77
2021/08/02 01:26:43;;;;;;;54.85;32.80;;;;;;;18.68;87.36;99357.00;5096224;27;20066;-77
2021/08/02 01:29:48;;;;;;;57.72;33.53;;;;;;;18.73;87.32;99360.25;5132608;27;20031;-77
2021/08/02 01:32:16;;;;;;;64.60;37.50;;;;;;;18.71;87.62;99351.56;5114606;27;20548;-78
2021/08/02 01:34:42;;;;;;;51.95;33.63;;;;;;;18.80;87.49;99356.38;5133110;27;20043;-77
2021/08/02 01:37:10;;;;;;;53.40;32.50;;;;;;;18.72;87.56;99339.22;5081011;27;20137;-77
2021/08/02 01:39:39;;;;;;;52.45;31.38;;;;;;;18.80;87.48;99353.72;5097659;27;20043;-78
2021/08/02 01:42:06;;;;;;;50.40;32.72;;;;;;;18.78;87.43;99352.13;5096471;28;20043;-76
2021/08/02 01:44:32;;;;;;;52.92;33.85;;;;;;;18.85;87.57;99358.78;5093785;28;20561;-77
2021/08/02 01:47:07;;;;;;;53.08;34.45;;;;;;;18.85;87.53;99356.16;5076762;28;20066;-77
2021/08/02 01:49:44;;;;;;;45.17;31.23;;;;;;;18.91;87.66;99357.63;5077374;28;20616;-76
2021/08/02 01:52:25;;;;;;;51.33;32.20;;;;;;;18.74;87.40;99327.72;5060235;28;20130;-77
2021/08/02 01:55:02;;;;;;;53.65;33.80;;;;;;;18.79;87.34;99344.13;5093546;28;20108;-78
2021/08/02 01:57:48;;;;;;;51.22;32.50;;;;;;;18.82;87.61;99362.41;5076927;28;20047;-78
2021/08/02 02:00:27;;;;;;;44.22;29.52;;;;;;;18.86;87.65;99357.88;5076694;28;20043;-76
2021/08/02 02:03:12;;;;;;;40.35;28.15;;;;;;;18.91;87.84;99350.56;5094044;28;20036;-76
2021/08/02 02:05:51;;;;;;;36.63;25.08;;;;;;;18.86;87.59;99336.78;5093613;28;20044;-77
2021/08/02 02:08:21;;;;;;;41.42;29.02;;;;;;;18.90;87.54;99350.66;5111590;28;20074;-76
2021/08/02 02:10:53;;;;;;;36.72;27.10;;;;;;;18.87;87.68;99335.81;5094181;28;20043;-75
2021/08/02 02:13:29;;;;;;;50.13;29.35;;;;;;;18.81;87.62;99328.25;5060943;28;20032;-77
2021/08/02 02:15:58;;;;;;;46.00;30.88;;;;;;;18.84;87.70;99343.91;5077091;28;20475;-75
2021/08/02 02:18:27;;;;;;;39.55;28.05;;;;;;;18.78;87.65;99336.31;5076845;28;20078;-76
2021/08/02 02:20:54;;;;;;;43.90;28.83;;;;;;;18.76;87.61;99336.34;5094327;28;20101;-77
2021/08/02 02:23:23;;;;;;;42.38;29.02;;;;;;;18.70;87.75;99335.81;5077052;28;20089;-77
2021/08/02 02:25:50;;;;;;;37.33;26.75;;;;;;;18.82;87.71;99348.41;5093827;28;20043;-77
2021/08/02 02:28:20;;;;;;;38.35;26.38;;;;;;;18.78;87.50;99346.84;5109797;27;20046;-75
2021/08/02 02:30:49;;;;;;;40.38;27.88;;;;;;;18.64;87.55;99343.13;5097629;27;20031;-78
2021/08/02 02:33:17;;;;;;;46.70;31.17;;;;;;;18.60;87.70;99353.88;5095570;27;20050;-77
2021/08/02 02:35:46;;;;;;;44.42;30.20;;;;;;;18.58;87.85;99355.72;5113691;27;20610;-77
2021/08/02 02:38:14;;;;;;;41.92;29.27;;;;;;;18.43;87.89;99333.63;5096309;27;20077;-78
2021/08/02 02:40:44;;;;;;;37.30;27.27;;;;;;;18.50;87.92;99353.47;5107029;28;20507;-78
2021/08/02 02:43:12;;;;;;;36.20;25.88;;;;;;;18.48;87.93;99353.56;5076434;28;20144;-78
2021/08/02 02:45:40;;;;;;;34.88;26.08;;;;;;;18.43;88.01;99344.16;5111640;28;20088;-75
2021/08/02 02:48:08;;;;;;;35.65;24.98;;;;;;;18.34;87.87;99340.19;5110760;28;20071;-76
2021/08/02 02:50:34;;;;;;;32.50;25.65;;;;;;;18.40;88.18;99349.59;5092873;28;20043;-75
2021/08/02 02:53:03;;;;;;;35.22;26.23;;;;;;;18.33;88.35;99327.94;5074996;28;20047;-78
2021/08/02 02:55:31;;;;;;;27.88;22.10;;;;;;;18.38;87.95;99339.13;5092101;28;20122;-77
2021/08/02 02:57:57;;;;;;;25.45;21.60;;;;;;;18.35;87.94;99342.75;5110623;28;20070;-77
2021/08/02 03:00:24;;;;;;;27.02;21.38;;;;;;;18.28;87.95;99332.59;5091928;28;20456;-77
2021/08/02 03:02:54;;;;;;;25.30;21.73;;;;;;;18.39;88.16;99346.09;5075353;28;20055;-78
2021/08/02 03:05:23;;;;;;;23.83;19.55;;;;;;;18.41;88.20;99351.31;5091664;28;20061;-78
2021/08/02 03:07:53;;;;;;;25.65;20.20;;;;;;;18.41;88.36;99353.94;5093071;28;20126;-78
2021/08/02 03:10:22;;;;;;;26.15;20.75;;;;;;;18.50;88.53;99356.97;5075877;28;20031;-76
2021/08/02 03:12:49;;;;;;;22.70;20.30;;;;;;;18.60;88.78;99367.03;5067610;28;20144;-77
2021/08/02 03:15:15;;;;;;;22.23;18.95;;;;;;;18.60;88.37;99362.63;5075594;28;20039;-76
2021/08/02 03:17:41;;;;;;;19.20;17.20;;;;;;;18.65;88.10;99365.88;5110925;28;20050;-77
2021/08/02 03:20:09;;;;;;;23.20;18.50;;;;;;;18.63;88.39;99367.75;5110296;28;20031;-77
2021/08/02 03:23:17;;;;;;;18.67;16.30;;;;;;;18.62;88.10;99376.59;5092467;28;20036;-79
2021/08/02 03:25:51;;;;;;;17.90;15.90;;;;;;;18.55;88.39;99362.00;5084388;28;20043;-79
2021/08/02 03:28:41;;;;;;;22.98;17.77;;;;;;;18.69;88.37;99371.00;5126389;27;20534;-77
2021/08/02 03:31:11;;;;;;;19.38;15.98;;;;;;;18.84;88.48;99369.41;5130534;27;20034;-77
2021/08/02 03:33:39;;;;;;;20.10;16.55;;;;;;;18.82;88.51;99343.97;5112575;27;20051;-76
2021/08/02 03:36:12;;;;;;;16.33;14.63;;;;;;;18.92;88.02;99357.53;5111718;27;20035;-77
2021/08/02 03:38:40;;;;;;;15.90;14.20;;;;;;;18.92;88.09;99348.78;5112430;27;20049;-76
2021/08/02 03:41:07;;;;;;;20.65;14.02;;;;;;;18.95;88.48;99362.69;5121344;27;20040;-77
2021/08/02 03:43:37;;;;;;;16.73;14.90;;;;;;;19.06;88.52;99375.31;5110207;28;20097;-76
2021/08/02 03:46:05;;;;;;;15.73;14.07;;;;;;;19.31;88.86;99374.06;5109607;28;20043;-77
2021/08/02 03:48:32;;;;;;;15.98;13.35;;;;;;;19.53;88.74;99373.78;5093883;28;20468;-77
2021/08/02 03:50:59;;;;;;;14.52;12.52;;;;;;;19.68;88.36;99376.56;5093395;28;20051;-77
2021/08/02 03:53:25;;;;;;;14.75;12.50;;;;;;;19.74;88.41;99381.50;5093569;28;20044;-78
2021/08/02 03:55:52;;;;;;;15.35;13.07;;;;;;;19.91;88.51;99369.22;5059871;28;20130;-79
2021/08/02 03:58:18;;;;;;;14.18;11.30;;;;;;;20.04;88.04;99346.47;5111760;28;20070;-77
2021/08/02 04:00:44;;;;;;;17.65;11.85;;;;;;;20.39;88.22;99367.44;5111670;28;20146;-77
2021/08/02 04:03:10;;;;;;;11.88;9.95;;;;;;;20.45;87.81;99345.91;5092805;28;20101;-77
2021/08/02 04:05:36;;;;;;;12.02;10.88;;;;;;;20.75;87.70;99371.53;5075377;28;20178;-76
2021/08/02 04:08:02;;;;;;;11.88;9.98;;;;;;;20.97;87.21;99372.09;5109405;28;20050;-78
2021/08/02 04:10:30;;;;;;;11.80;10.68;;;;;;;21.07;87.17;99354.75;5075188;28;20408;-77
2021/08/02 04:12:57;;;;;;;10.63;9.52;;;;;;;21.28;86.98;99362.34;5111107;28;20107;-76
2021/08/02 04:15:23;;;;;;;13.77;10.95;;;;;;;21.45;87.19;99371.91;5076639;28;20553;-79
2021/08/02 04:17:49;;;;;;;11.35;10.20;;;;;;;21.61;86.92;99356.81;5094497;28;20046;-80
2021/08/02 04:20:14;;;;;;;15.18;10.60;;;;;;;21.77;86.71;99347.91;5106566;28;20588;-78
2021/08/02 04:22:41;;;;;;;11.20;10.00;;;;;;;22.03;86.10;99343.63;5104535;28;20032;-76
2021/08/02 04:25:08;;;;;;;12.90;9.75;;;;;;;22.02;85.23;99326.03;5110595;28;20039;-78
2021/08/02 04:27:34;;;;;;;10.35;9.35;;;;;;;22.23;85.43;99331.72;5101866;27;20042;-79
2021/08/02 04:30:00;;;;;;;15.10;8.77;;;;;;;22.46;84.36;99337.34;5111888;27;20038;-79
2021/08/02 04:32:26;;;;;;;10.23;9.32;;;;;;;22.47;84.08;99323.16;5111845;28;20042;-78
2021/08/02 04:34:52;;;;;;;12.10;9.70;;;;;;;22.74;84.17;99332.00;5130346;27;20043;-78
2021/08/02 04:37:18;;;;;;;12.45;9.60;;;;;;;22.83;82.89;99326.09;5111794;28;20517;-79
2021/08/02 04:39:43;;;;;;;11.60;10.25;;;;;;;22.91;83.14;99309.66;5129161;28;20050;-79
2021/08/02 04:42:10;;;;;;;12.95;10.48;;;;;;;23.09;82.79;99311.03;5074643;28;20161;-77
2021/08/02 04:44:36;;;;;;;13.07;11.57;;;;;;;23.17;82.46;99300.75;5088188;28;20051;-79
2021/08/02 04:47:02;;;;;;;15.70;11.48;;;;;;;23.52;82.78;99311.69;5070648;28;20044;-79
2021/08/02 04:49:28;;;;;;;15.40;12.25;;;;;;;23.79;81.87;99322.16;5090165;28;20540;-79
2021/08/02 04:51:53;;;;;;;11.73;10.57;;;;;;;23.95;81.99;99305.13;5071969;28;20047;-76
2021/08/02 04:54:19;;;;;;;11.63;10.43;;;;;;;24.15;80.41;99312.50;5102182;28;20059;-77
2021/08/02 04:56:45;;;;;;;14.15;10.07;;;;;;;24.20;79.84;99314.81;5075650;28;20039;-78
2021/08/02 04:59:11;;;;;;;10.80;9.70;;;;;;;24.11;79.38;99302.22;5096043;28;20543;-78
2021/08/02 05:01:37;;;;;;;10.77;9.70;;;;;;;24.35;80.02;99319.03;5079743;28;20039;-78
2021/08/02 05:04:03;;;;;;;12.52;10.45;;;;;;;24.42;79.64;99319.41;5098523;28;20063;-77
2021/08/02 05:06:29;;;;;;;12.68;11.00;;;;;;;24.49;78.80;99312.69;5117454;28;20117;-78
2021/08/02 05:08:55;;;;;;;10.38;9.38;;;;;;;24.69;79.33;99305.00;5097922;28;20040;-79
2021/08/02 05:11:21;;;;;;;11.00;9.77;;;;;;;25.00;79.30;99308.00;5097355;28;20054;-79
2021/08/02 05:13:47;;;;;;;10.73;9.48;;;;;;;25.21;79.18;99305.50;5081463;28;20040;-77
2021/08/02 05:16:13;;;;;;;11.00;10.00;;;;;;;25.17;77.91;99308.50;5116483;28;20042;-78
2021/08/02 05:18:39;;;;;;;10.50;9.43;;;;;;;25.23;77.70;99297.38;5080263;28;20415;-79
2021/08/02 05:21:05;;;;;;;10.40;9.48;;;;;;;25.26;77.41;99281.19;5080393;28;20044;-78
2021/08/02 05:23:32;;;;;;;10.43;8.95;;;;;;;25.65;76.46;99304.81;5097775;28;20079;-78
2021/08/02 05:25:58;;;;;;;8.98;7.75;;;;;;;26.00;76.28;99301.97;5115917;28;20570;-78
2021/08/02 05:28:24;;;;;;;9.60;8.40;;;;;;;26.30;73.79;99308.44;5096268;27;20073;-77
2021/08/02 05:30:49;;;;;;;10.70;9.05;;;;;;;26.23;73.40;99291.25;5135467;27;20035;-77
2021/08/02 05:33:15;;;;;;;9.70;8.70;;;;;;;26.40;72.38;99302.34;5137867;27;20139;-80
2021/08/02 05:35:41;;;;;;;9.88;8.88;;;;;;;26.63;72.60;99303.06;5120284;27;20035;-78
2021/08/02 05:38:07;;;;;;;9.73;7.82;;;;;;;26.91;71.34;99311.44;5136127;27;20039;-80
2021/08/02 05:40:33;;;;;;;9.95;8.10;;;;;;;27.09;70.84;99309.03;5091782;28;20070;-78
2021/08/02 05:42:59;;;;;;;8.77;7.85;;;;;;;27.99;70.80;99290.53;5095077;28;20047;-79
2021/08/02 05:45:25;;;;;;;9.00;7.50;;;;;;;29.58;70.73;99287.50;5061269;28;20047;-77
2021/08/02 05:47:52;;;;;;;8.05;7.32;;;;;;;31.07;68.18;99292.44;5095667;28;20283;-78
2021/08/02 05:50:19;;;;;;;8.20;7.40;;;;;;;31.57;61.84;99252.38;5076461;28;20188;-79
2021/08/02 05:52:45;;;;;;;8.02;7.13;;;;;;;32.00;60.49;99265.78;5091785;28;20047;-79
2021/08/02 05:55:12;;;;;;;8.95;7.60;;;;;;;31.63;57.03;99278.59;5077511;28;20052;-80
2021/08/02 05:57:39;;;;;;;8.50;7.35;;;;;;;31.74;59.26;99280.19;5079038;28;20051;-78
2021/08/02 06:00:07;;;;;;;9.27;6.68;;;;;;;33.00;58.61;99280.09;5115121;28;20047;-79
2021/08/02 06:02:38;;;;;;;8.18;7.15;;;;;;;33.72;53.22;99286.44;5103363;28;20525;-78
2021/08/02 06:05:04;;;;;;;10.85;7.07;;;;;;;33.83;53.15;99267.16;5097827;28;20089;-79
2021/08/02 06:07:30;;;;;;;8.60;7.65;;;;;;;34.13;50.72;99282.69;5065670;28;20520;-78
2021/08/02 06:09:57;;;;;;;8.05;7.22;;;;;;;34.05;47.92;99260.13;5097672;28;20459;-78
2021/08/02 06:12:23;;;;;;;8.13;6.63;;;;;;;34.57;48.31;99271.22;5080523;28;20049;-81
2021/08/02 06:14:51;;;;;;;7.38;6.68;;;;;;;34.56;45.57;99247.94;5116137;28;20126;-76
2021/08/02 06:17:17;;;;;;;10.18;7.05;;;;;;;34.82;45.22;99273.69;5082614;28;20459;-78
2021/08/02 06:19:44;;;;;;;7.38;6.53;;;;;;;35.05;45.09;99272.81;5096155;28;20039;-81
2021/08/02 06:22:12;;;;;;;8.25;7.20;;;;;;;34.19;44.49;99263.06;5101921;28;20039;-78
2021/08/02 06:24:38;;;;;;;8.40;7.53;;;;;;;33.30;44.25;99261.50;5111570;28;20035;-78
2021/08/02 06:27:05;;;;;;;8.68;7.72;;;;;;;32.43;45.08;99263.81;5125127;27;20059;-78
2021/08/02 06:29:31;;;;;;;8.38;7.60;;;;;;;32.27;46.45;99261.16;5116700;27;20039;-77
2021/08/02 06:31:57;;;;;;;7.47;6.60;;;;;;;33.48;47.85;99242.41;5134426;27;20042;-78
2021/08/02 06:34:23;;;;;;;9.00;7.97;;;;;;;33.76;43.86;99255.41;5134254;27;20123;-81
2021/08/02 06:36:49;;;;;;;8.35;7.55;;;;;;;32.94;45.72;99245.78;5091222;27;20039;-78
2021/08/02 06:39:14;;;;;;;8.43;7.68;;;;;;;33.62;44.88;99259.69;5116127;27;20134;-81
2021/08/02 06:41:40;;;;;;;8.02;7.32;;;;;;;34.14;44.38;99239.31;5062346;28;20071;-78
2021/08/02 06:44:06;;;;;;;8.23;7.43;;;;;;;33.81;43.28;99269.19;5073272;28;20050;-78
2021/08/02 06:46:32;;;;;;;9.80;7.97;;;;;;;32.28;44.01;99265.50;5089392;28;20048;-79
2021/08/02 06:48:58;;;;;;;9.27;8.32;;;;;;;31.15;46.41;99272.88;5073119;28;20039;-76
2021/08/02 06:51:24;;;;;;;9.95;7.63;;;;;;;30.10;47.64;99265.47;5073308;28;20035;-78
2021/08/02 06:53:50;;;;;;;9.07;8.05;;;;;;;29.35;49.33;99265.63;5098560;28;20066;-79
2021/08/02 06:56:16;;;;;;;9.25;8.35;;;;;;;28.82;51.01;99274.06;5093278;28;20050;-78
2021/08/02 06:58:42;;;;;;;10.80;8.60;;;;;;;28.18;51.41;99284.38;5111540;28;20043;-78
2021/08/02 07:01:08;;;;;;;11.30;8.70;;;;;;;27.56;53.47;99271.16;5095860;28;20118;-79
2021/08/02 07:03:34;;;;;;;10.65;8.73;;;;;;;27.23;54.80;99275.81;5095071;28;20039;-79
2021/08/02 07:06:00;;;;;;;10.05;9.05;;;;;;;27.09;55.14;99300.16;5113697;28;20509;-81
2021/08/02 07:08:26;;;;;;;10.40;9.30;;;;;;;26.72;56.70;99304.09;5095503;28;20063;-78
2021/08/02 07:10:52;;;;;;;13.88;9.20;;;;;;;26.50;57.04;99297.91;5077441;28;20066;-77
2021/08/02 07:13:17;;;;;;;9.80;8.90;;;;;;;26.38;57.77;99305.13;5080256;28;20572;-78
2021/08/02 07:15:44;;;;;;;9.80;8.77;;;;;;;26.20;58.51;99307.50;5095337;28;20051;-80
2021/08/02 07:18:10;;;;;;;10.02;9.13;;;;;;;25.90;59.07;99285.00;5077472;28;20423;-78
2021/08/02 07:20:36;;;;;;;10.88;9.20;;;;;;;25.83;59.91;99298.00;5077133;28;20043;-77
2021/08/02 07:23:02;;;;;;;11.98;9.02;;;;;;;25.73;60.14;99297.03;5112799;28;20032;-78
2021/08/02 07:25:28;;;;;;;11.48;9.23;;;;;;;25.61;60.80;99298.84;5094327;28;20088;-79
2021/08/02 07:27:54;;;;;;;11.35;9.70;;;;;;;25.61;61.21;99303.34;5126500;27;20138;-78
2021/08/02 07:30:20;;;;;;;10.32;9.32;;;;;;;25.37;61.10;99296.31;5098268;27;20099;-77
2021/08/02 07:32:49;;;;;;;11.98;10.02;;;;;;;25.26;61.46;99302.47;5099565;27;20232;-79
2021/08/02 07:35:14;;;;;;;11.68;9.75;;;;;;;25.08;62.04;99291.44;5115829;27;20452;-78
2021/08/02 07:37:42;;;;;;;13.20;9.40;;;;;;;24.96;62.61;99277.28;5133175;27;20059;-80
2021/08/02 07:40:10;;;;;;;10.57;9.48;;;;;;;24.87;62.73;99301.94;5113011;27;20042;-80
2021/08/02 07:42:36;;;;;;;12.00;9.85;;;;;;;24.53;63.44;99281.38;5093259;28;20035;-79
2021/08/02 07:45:02;;;;;;;14.15;12.50;;;;;;;24.34;64.87;99274.78;5112730;28;20050;-79
2021/08/02 07:47:29;;;;;;;11.98;10.13;;;;;;;24.11;65.30;99254.41;5094761;28;20043;-80
2021/08/02 07:49:55;;;;;;;12.15;10.80;;;;;;;24.06;66.28;99275.97;5093950;28;20049;-80
2021/08/02 07:52:21;;;;;;;11.15;10.02;;;;;;;24.00;66.60;99271.13;5059486;28;20035;-78
2021/08/02 07:54:47;;;;;;;11.50;10.27;;;;;;;23.91;66.86;99256.69;5093855;28;20138;-78
2021/08/02 07:57:13;;;;;;;13.55;11.43;;;;;;;23.74;67.05;99237.50;5111797;28;20524;-76
2021/08/02 07:59:39;;;;;;;13.45;12.05;;;;;;;23.88;67.57;99257.75;5111031;28;20035;-78
2021/08/02 08:02:05;;;;;;;15.02;11.98;;;;;;;23.86;67.84;99258.81;5110695;28;20043;-79
2021/08/02 08:04:31;;;;;;;15.30;11.73;;;;;;;23.73;68.44;99250.91;5075633;28;20036;-81
2021/08/02 08:06:57;;;;;;;12.40;11.20;;;;;;;23.66;68.54;99257.59;5109748;28;20121;-80
2021/08/02 08:09:24;;;;;;;14.20;11.25;;;;;;;23.74;68.99;99269.38;5075043;28;20112;-79
2021/08/02 08:11:50;;;;;;;12.63;11.43;;;;;;;23.83;69.51;99243.97;5102191;28;20043;-77
2021/08/02 08:14:16;;;;;;;14.15;11.68;;;;;;;24.07;69.86;99235.16;5075604;28;20031;-78
2021/08/02 08:16:42;;;;;;;12.65;11.38;;;;;;;24.42;70.07;99225.50;5060135;28;20046;-79
2021/08/02 08:19:08;;;;;;;11.30;10.20;;;;;;;24.85;70.06;99197.47;5112830;28;20184;-77
2021/08/02 08:21:35;;;;;;;14.70;10.55;;;;;;;25.29;69.39;99163.81;5093692;28;20039;-79
2021/08/02 08:24:06;;;;;;;10.32;9.25;;;;;;;26.63;70.23;99142.19;5093612;28;20032;-78
2021/08/02 08:26:34;;;;;;;9.67;8.70;;;;;;;29.48;69.90;99150.06;5112062;28;20066;-78
2021/08/02 08:29:01;;;;;;;8.90;8.00;;;;;;;32.02;64.04;99120.34;5141438;27;20281;-80
2021/08/02 08:31:27;;;;;;;9.88;7.70;;;;;;;34.08;57.79;99135.66;5085183;28;20222;-79
2021/08/02 08:33:55;;;;;;;10.07;7.68;;;;;;;35.48;53.61;99131.53;5097185;27;20561;-80
2021/08/02 08:36:24;;;;;;;9.82;7.25;;;;;;;36.63;49.05;99124.16;5133828;27;20049;-77
2021/08/02 08:38:50;;;;;;;8.15;7.35;;;;;;;37.50;46.76;99120.97;5095961;28;20070;-81
2021/08/02 08:41:20;;;;;;;10.38;6.93;;;;;;;38.14;43.96;99128.75;5100205;28;20046;-78
2021/08/02 08:43:52;;;;;;;9.52;7.25;;;;;;;38.52;42.22;99124.50;5082914;28;20036;-81
2021/08/02 08:46:20;;;;;;;8.43;7.15;;;;;;;38.85;41.26;99137.19;5091769;28;20534;-80
2021/08/02 08:48:47;;;;;;;7.95;7.20;;;;;;;39.45;38.88;99107.00;5071798;28;20070;-79
2021/08/02 08:51:13;;;;;;;10.77;7.93;;;;;;;38.86;36.58;99125.28;5073257;28;20125;-81
2021/08/02 08:53:42;;;;;;;7.82;6.70;;;;;;;39.18;35.60;99119.88;5096577;28;20188;-81
2021/08/02 08:56:10;;;;;;;7.63;6.63;;;;;;;39.64;36.66;99108.94;5093900;28;20055;-80
2021/08/02 08:58:39;;;;;;;7.82;6.95;;;;;;;40.46;34.03;99116.19;5092336;28;20043;-78
2021/08/02 09:01:06;;;;;;;6.40;5.80;;;;;;;40.58;33.69;99117.13;5074821;28;20125;-76
2021/08/02 09:03:32;;;;;;;8.00;6.85;;;;;;;40.85;33.21;99119.53;5088363;28;20036;-77
2021/08/02 09:06:02;;;;;;;6.78;5.97;;;;;;;41.81;32.59;99105.19;5052831;28;20093;-75
2021/08/02 09:08:27;;;;;;;7.20;6.50;;;;;;;42.20;32.56;99109.38;5087692;28;20043;-76
2021/08/02 09:11:00;;;;;;;7.32;6.63;;;;;;;42.08;32.08;99107.50;5089190;28;20097;-77
2021/08/02 09:13:36;;;;;;;7.75;7.03;;;;;;;42.01;30.99;99101.31;5089383;28;20127;-76
2021/08/02 09:16:16;;;;;;;7.05;6.25;;;;;;;42.81;30.52;99090.75;5090733;28;20449;-76
2021/08/02 09:18:57;;;;;;;6.00;5.40;;;;;;;42.98;29.84;99085.34;5090251;28;20092;-77
2021/08/02 09:21:23;;;;;;;7.00;6.35;;;;;;;43.45;28.64;99087.03;5108725;28;20052;-77
2021/08/02 09:23:54;;;;;;;7.32;6.20;;;;;;;42.85;27.71;99082.91;5090985;28;20055;-77
2021/08/02 09:26:33;;;;;;;7.55;6.20;;;;;;;42.80;27.76;99082.81;5109177;28;20058;-75
2021/08/02 09:29:00;;;;;;;7.85;5.88;;;;;;;42.93;28.89;99063.38;5054261;28;20050;-77
2021/08/02 09:31:36;;;;;;;5.70;5.10;;;;;;;43.01;28.96;99063.00;5071171;28;20036;-75
2021/08/02 09:34:07;;;;;;;6.53;5.90;;;;;;;42.92;28.99;99077.31;5054125;28;20078;-74
2021/08/02 09:36:40;;;;;;;6.45;5.72;;;;;;;43.20;28.21;99060.84;5063886;28;20040;-82
2021/08/02 09:39:13;;;;;;;6.85;6.05;;;;;;;42.19;28.15;99058.53;5090133;28;20040;-76
2021/08/02 09:41:41;;;;;;;6.35;5.32;;;;;;;41.70;28.93;99048.69;5107654;28;20096;-78
2021/08/02 09:44:20;;;;;;;5.55;5.00;;;;;;;40.50;29.06;99050.13;5110789;28;20122;-78
2021/08/02 09:47:06;;;;;;;7.45;5.63;;;;;;;40.81;29.63;99048.28;5077153;28;20088;-78
2021/08/02 09:49:48;;;;;;;6.57;5.88;;;;;;;40.79;28.96;99038.69;5112146;28;20133;-74
2021/08/02 09:52:15;;;;;;;6.35;5.72;;;;;;;40.07;29.01;99026.50;5093963;28;20056;-75
2021/08/02 09:54:41;;;;;;;6.97;6.07;;;;;;;39.84;29.09;99032.59;5092994;28;20054;-76
2021/08/02 09:57:07;;;;;;;6.47;5.45;;;;;;;40.50;30.25;99025.59;5092542;28;20044;-77
2021/08/02 09:59:39;;;;;;;7.10;6.40;;;;;;;41.25;28.65;99030.91;5088094;28;20561;-77
2021/08/02 10:02:06;;;;;;;6.65;5.95;;;;;;;41.46;28.59;99029.53;5093736;28;20054;-78
2021/08/02 10:04:32;;;;;;;6.93;6.22;;;;;;;41.08;28.96;99022.53;5084597;28;20209;-74
2021/08/02 10:06:59;;;;;;;6.38;5.88;;;;;;;40.57;28.33;99030.13;5088733;28;20051;-77
2021/08/02 10:09:28;;;;;;;6.47;5.88;;;;;;;40.53;29.04;99018.88;5074183;28;20507;-76
2021/08/02 10:11:58;;;;;;;6.70;6.07;;;;;;;40.79;28.91;99019.63;5091688;28;20053;-77
2021/08/02 10:14:33;;;;;;;6.50;5.82;;;;;;;41.25;27.88;99012.66;5085082;28;20040;-77
2021/08/02 10:17:08;;;;;;;7.10;6.35;;;;;;;41.24;28.48;99018.34;5075870;28;20058;-75
2021/08/02 10:19:36;;;;;;;6.95;5.85;;;;;;;40.85;28.08;99010.50;5110374;28;20506;-76
2021/08/02 10:22:03;;;;;;;7.10;6.50;;;;;;;40.02;28.22;99021.72;5093640;28;20606;-76
2021/08/02 10:24:29;;;;;;;7.40;6.07;;;;;;;39.46;28.72;99016.16;5093250;28;20051;-77
2021/08/02 10:27:00;;;;;;;6.88;6.18;;;;;;;38.71;29.32;99017.66;5076745;28;20039;-76
2021/08/02 10:29:46;;;;;;;6.00;5.50;;;;;;;37.97;29.87;99031.44;5109391;28;20039;-77
2021/08/02 10:32:27;;;;;;;6.43;5.85;;;;;;;36.63;30.93;99023.94;5112550;28;20603;-77
2021/08/02 10:34:56;;;;;;;7.38;5.72;;;;;;;36.05;32.58;99035.06;5111890;28;20054;-77
2021/08/02 10:37:57;;;;;;;6.38;5.70;;;;;;;35.26;33.61;99031.44;5094433;28;20049;-77
2021/08/02 10:40:23;;;;;;;8.25;6.45;;;;;;;34.48;35.46;99024.75;5092456;28;20771;-80
2021/08/02 10:42:51;;;;;;;11.40;6.60;;;;;;;33.83;36.15;99016.31;5113742;28;20063;-77
2021/08/02 10:45:33;;;;;;;6.07;5.57;;;;;;;33.13;38.30;99050.56;5074077;28;20108;-77
2021/08/02 10:47:59;;;;;;;6.38;5.75;;;;;;;32.52;38.39;99045.78;5091678;28;20085;-75
2021/08/02 10:50:28;;;;;;;7.78;6.03;;;;;;;32.17;40.11;99027.22;5083994;28;20074;-75
2021/08/02 10:52:54;;;;;;;6.50;5.90;;;;;;;32.01;40.54;99038.84;5073712;28;20532;-76
2021/08/02 10:55:21;;;;;;;6.65;5.93;;;;;;;31.75;40.05;99037.19;5059090;28;20048;-76
2021/08/02 10:58:00;;;;;;;6.88;6.18;;;;;;;31.41;41.40;99032.81;5078663;28;20185;-76
2021/08/02 11:00:27;;;;;;;6.60;6.00;;;;;;;31.02;42.31;99038.75;5089464;28;20082;-78
2021/08/02 11:02:55;;;;;;;8.20;6.60;;;;;;;30.73;42.66;99034.66;5058414;28;20032;-78
2021/08/02 11:05:30;;;;;;;7.15;6.40;;;;;;;30.34;43.32;99025.25;5091462;28;20492;-77
2021/08/02 11:08:06;;;;;;;7.47;6.32;;;;;;;30.10;43.95;99016.06;5075725;28;20073;-77
2021/08/02 11:10:34;;;;;;;6.88;6.28;;;;;;;29.92;44.52;99016.09;5092097;28;20346;-76
2021/08/02 11:13:00;;;;;;;7.68;6.97;;;;;;;29.91;44.96;99025.97;5092310;28;20069;-76
2021/08/02 11:15:25;;;;;;;8.07;6.10;;;;;;;29.78;45.73;99016.66;5092469;28;20424;-77
2021/08/02 11:17:53;;;;;;;6.90;6.15;;;;;;;29.78;46.46;99024.72;5091649;28;20031;-79
2021/08/02 11:20:20;;;;;;;7.13;6.43;;;;;;;29.79;46.58;99019.22;5110380;28;20049;-76
2021/08/02 11:22:50;;;;;;;7.07;6.38;;;;;;;29.78;46.75;99014.84;5110059;28;20031;-76
2021/08/02 11:25:28;;;;;;;6.68;5.97;;;;;;;29.82;46.52;99016.19;5109837;28;20043;-79
2021/08/02 11:27:58;;;;;;;8.00;5.97;;;;;;;29.62;46.98;99012.88;5048811;28;20065;-75
2021/08/02 11:30:25;;;;;;;6.78;5.93;;;;;;;29.75;47.30;99002.59;5089568;28;20043;-76
2021/08/02 11:32:51;;;;;;;8.68;6.03;;;;;;;29.83;46.95;98995.59;5108606;28;20122;-78